EKAC weather

Aarhus Seaplne Terminal
Aarhus, Denmark

Public forecast

Using degrees Celsius for public forecast. Weather courtesy of forecast.io.

METAR (pilot weather report)

Closest report is Aarhus Airport, 15.2 nm (28.2 km) NE. Retrieved 2019/05/25 20:20 UTC (3 minutes ago):

EKAH 252020Z AUTO 26009KT 230V290 9999NDV BKN022/// BKN170/// 11/08 Q1011

TAF (pilot weather forecast)

Closest forecast is Aarhus Airport, 15.2 nm (28.2 km) NE. Retrieved 2019/05/25 18:18 UTC (2 hours ago):

TAF EKAH 251712Z 2518/2618 26012KT 9999 BKN020